Terminal Aerodrome Forecast
Issued by NWS

Home | Current Version | Previous Version | Text Only | Print | Product List | Glossary On
Versions: 1 2 3 4 5 6 7 8 9 10 11 12 13
263
FTUS45 KABQ 281135
TAFSAF
TAF
KSAF 281135Z 2812/2912 01007KT P6SM BKN070
     FM281800 24007KT P6SM VCSH BKN070
     FM282100 23008KT P6SM VCTS OVC060CB
     FM290000 15007KT P6SM VCSH OVC060
     FM290400 36006KT P6SM BKN070=

USA.gov is the U.S. government's official web portal to all federal, state and local government web resources and services.